createdAt,value
2022-07-26T00:01:18.133Z,69.60
2022-07-26T00:03:45.316Z,70.20
2022-07-26T00:06:12.256Z,70.70
2022-07-26T00:08:39.288Z,70.30
2022-07-26T00:11:07.311Z,70.90
2022-07-26T00:13:35.155Z,70.80
2022-07-26T00:16:02.681Z,70.90
2022-07-26T00:18:29.627Z,71.10
2022-07-26T00:20:56.594Z,71.60
2022-07-26T00:39:14.222Z,71.30
2022-07-26T00:41:41.081Z,71.70
2022-07-26T00:44:08.124Z,71.10
2022-07-26T00:50:59.787Z,71.20
2022-07-26T00:53:26.734Z,70.90
2022-07-26T00:55:53.762Z,71.20
2022-07-26T00:58:20.592Z,70.90
2022-07-26T01:00:47.793Z,70.80
2022-07-26T01:03:14.805Z,70.90
2022-07-26T01:05:42.689Z,70.60
2022-07-26T01:08:09.714Z,70.90
2022-07-26T01:10:36.703Z,70.50
2022-07-26T01:13:03.559Z,70.50
2022-07-26T01:15:30.652Z,70.70
2022-07-26T01:17:57.489Z,70.50
2022-07-26T01:20:24.438Z,70.70
2022-07-26T01:22:51.388Z,70.70
2022-07-26T01:25:28.582Z,70.60
2022-07-26T01:27:55.537Z,70.90
2022-07-26T01:30:22.689Z,70.60
2022-07-26T01:32:49.634Z,70.90
2022-07-26T01:35:16.563Z,70.40
2022-07-26T01:37:43.289Z,70.60
2022-07-26T01:40:10.651Z,70.50
2022-07-26T01:42:40.846Z,70.60
2022-07-26T01:49:01.962Z,70.50
2022-07-26T01:51:29.055Z,70.10
2022-07-26T01:53:58.969Z,69.80
2022-07-26T01:56:26.178Z,70.20
2022-07-26T01:58:53.166Z,69.70
2022-07-26T02:01:38.053Z,69.60
2022-07-26T02:04:05.975Z,69.30
2022-07-26T02:06:34.350Z,69.80
2022-07-26T02:09:01.949Z,69.60
2022-07-26T02:11:28.837Z,69.60
2022-07-26T02:13:55.533Z,69.80
2022-07-26T02:16:22.701Z,69.40
2022-07-26T02:18:49.633Z,69.60
2022-07-26T02:21:16.569Z,70.40
2022-07-26T02:23:43.841Z,71.20
2022-07-26T02:26:10.663Z,71.30
2022-07-26T02:28:37.415Z,71.60
2022-07-26T02:31:04.512Z,71.40
2022-07-26T02:33:31.810Z,72.30
2022-07-26T02:35:58.799Z,72.60
2022-07-26T02:38:25.809Z,72.10
2022-07-26T02:40:52.976Z,72.20
2022-07-26T02:43:39.597Z,72.50
2022-07-26T02:53:55.619Z,75.50
2022-07-26T02:56:22.888Z,74.70
2022-07-26T02:58:50.121Z,75.80
2022-07-26T03:01:17.200Z,75.80
2022-07-26T03:03:50.166Z,77.00
2022-07-26T03:06:18.379Z,77.60
2022-07-26T03:08:45.721Z,77.40
2022-07-26T03:11:12.535Z,78.50
2022-07-26T03:13:39.561Z,78.30
2022-07-26T03:16:13.782Z,79.30
2022-07-26T03:18:45.252Z,79.30
2022-07-26T03:21:12.498Z,80.10
2022-07-26T03:23:39.608Z,80.10
2022-07-26T03:26:06.594Z,81.00
2022-07-26T03:28:46.568Z,81.70
2022-07-26T03:31:13.864Z,81.90
2022-07-26T03:33:41.360Z,82.40
2022-07-26T03:36:11.265Z,83.00
2022-07-26T03:38:41.041Z,83.30
2022-07-26T03:41:08.209Z,83.80
2022-07-26T03:43:40.211Z,84.20
2022-07-26T03:50:02.292Z,85.00
2022-07-26T03:52:47.842Z,85.10
2022-07-26T03:55:52.310Z,85.80
2022-07-26T03:58:19.872Z,86.30
2022-07-26T04:00:52.858Z,87.30
2022-07-26T04:03:22.585Z,87.40
2022-07-26T04:05:52.721Z,88.10
2022-07-26T04:08:19.717Z,88.20
2022-07-26T04:10:52.445Z,88.80
2022-07-26T04:13:24.165Z,88.80
2022-07-26T04:15:51.115Z,89.00
2022-07-26T04:18:42.614Z,89.20
2022-07-26T04:21:09.435Z,89.90
2022-07-26T04:23:36.226Z,90.10
2022-07-26T04:26:03.300Z,90.10
2022-07-26T04:28:30.466Z,90.20
2022-07-26T04:31:00.445Z,90.50
2022-07-26T04:33:30.678Z,90.30
2022-07-26T04:35:57.488Z,90.40
2022-07-26T04:38:28.678Z,90.60
2022-07-26T04:40:56.305Z,90.70
2022-07-26T04:43:23.017Z,90.80
2022-07-26T04:45:49.944Z,90.90
2022-07-26T04:52:10.373Z,91.00
2022-07-26T04:54:37.291Z,91.20
2022-07-26T04:57:04.212Z,91.50
2022-07-26T04:59:32.574Z,91.30
2022-07-26T05:02:00.079Z,91.30
2022-07-26T05:04:27.130Z,91.20
2022-07-26T05:06:53.934Z,91.30
2022-07-26T05:09:20.719Z,91.30
2022-07-26T05:11:47.451Z,91.50
2022-07-26T05:14:14.270Z,91.70
2022-07-26T05:16:44.282Z,91.60
2022-07-26T05:19:11.783Z,91.80
2022-07-26T05:21:38.824Z,91.50
2022-07-26T05:24:10.773Z,91.60
2022-07-26T05:26:37.842Z,91.80
2022-07-26T05:29:04.589Z,91.70
2022-07-26T05:31:31.352Z,91.70
2022-07-26T05:33:58.157Z,91.90
2022-07-26T05:36:26.688Z,92.10
2022-07-26T05:38:53.479Z,91.90
2022-07-26T05:41:20.233Z,92.00
2022-07-26T05:43:48.284Z,91.90
2022-07-26T05:46:19.607Z,91.70
2022-07-26T05:56:54.195Z,91.40
2022-07-26T05:59:21.179Z,91.60
2022-07-26T06:01:47.872Z,91.60
2022-07-26T06:04:17.245Z,91.50
2022-07-26T06:06:46.749Z,91.50
2022-07-26T06:09:24.066Z,91.60
2022-07-26T06:11:51.987Z,91.40
2022-07-26T06:14:19.210Z,91.60
2022-07-26T06:16:47.162Z,91.50
2022-07-26T06:19:14.237Z,91.50
2022-07-26T06:21:45.624Z,91.50
2022-07-26T06:24:12.897Z,91.50
2022-07-26T06:26:39.923Z,91.50
2022-07-26T06:29:06.621Z,91.20
2022-07-26T06:31:33.845Z,91.00
2022-07-26T06:34:00.910Z,91.10
2022-07-26T06:36:33.081Z,91.00
2022-07-26T06:39:00.041Z,91.10
2022-07-26T06:41:26.919Z,91.00
2022-07-26T06:43:53.872Z,90.90
2022-07-26T06:46:21.377Z,91.10
2022-07-26T06:49:26.462Z,90.70
2022-07-26T06:51:58.195Z,91.00
2022-07-26T06:54:25.047Z,90.70
2022-07-26T06:56:51.956Z,90.60
2022-07-26T06:59:18.677Z,90.50
2022-07-26T07:01:58.551Z,90.80
2022-07-26T07:04:31.938Z,90.50
2022-07-26T07:07:05.135Z,90.50
2022-07-26T07:09:40.577Z,90.40
2022-07-26T07:12:09.623Z,90.60
2022-07-26T07:14:44.554Z,90.10
2022-07-26T07:17:15.959Z,89.90
2022-07-26T07:19:46.933Z,89.30
2022-07-26T07:22:13.777Z,90.00
2022-07-26T07:24:41.433Z,89.70
2022-07-26T07:27:09.102Z,89.70
2022-07-26T07:29:37.490Z,89.10
2022-07-26T07:32:04.571Z,88.90
2022-07-26T07:34:32.514Z,89.10
2022-07-26T07:36:59.433Z,88.60
2022-07-26T07:39:34.591Z,88.70
2022-07-26T07:42:05.600Z,88.20
2022-07-26T07:44:32.956Z,87.40
2022-07-26T07:47:03.624Z,86.90
2022-07-26T07:50:09.875Z,87.40
2022-07-26T07:52:36.757Z,87.30
2022-07-26T07:55:40.467Z,85.60
2022-07-26T07:58:02.741Z,84.90
2022-07-26T08:00:37.886Z,84.70
2022-07-26T08:03:05.362Z,84.80
2022-07-26T08:05:33.361Z,84.40
2022-07-26T08:08:05.730Z,84.20
2022-07-26T08:10:49.084Z,84.70
2022-07-26T08:13:24.399Z,83.10
2022-07-26T08:15:52.171Z,83.10
2022-07-26T08:18:19.653Z,83.60
2022-07-26T08:20:52.966Z,82.70
2022-07-26T08:23:27.101Z,82.20
2022-07-26T08:25:59.675Z,82.20
2022-07-26T08:28:48.406Z,81.50
2022-07-26T08:31:16.465Z,81.30
2022-07-26T08:33:45.834Z,80.10
2022-07-26T08:36:17.788Z,79.50
2022-07-26T08:38:44.855Z,79.80
2022-07-26T08:41:14.342Z,79.40
2022-07-26T08:43:52.133Z,79.40
2022-07-26T08:46:33.215Z,77.50
2022-07-26T08:53:27.590Z,78.10
2022-07-26T08:56:07.057Z,78.00
2022-07-26T08:58:35.545Z,75.70
2022-07-26T09:01:07.808Z,75.60
2022-07-26T09:03:38.954Z,75.70
2022-07-26T09:06:18.710Z,75.10
2022-07-26T09:08:47.009Z,74.70
2022-07-26T09:11:27.794Z,74.60
2022-07-26T09:13:56.181Z,74.00
2022-07-26T09:16:26.669Z,73.00
2022-07-26T09:18:54.016Z,72.70
2022-07-26T09:21:54.202Z,73.10
2022-07-26T09:24:37.571Z,71.90
2022-07-26T09:27:06.231Z,70.60
2022-07-26T09:29:50.454Z,70.40
2022-07-26T09:32:19.798Z,70.30
2022-07-26T09:34:53.351Z,70.40
2022-07-26T09:37:49.602Z,69.10
2022-07-26T09:40:18.309Z,67.40
2022-07-26T09:42:55.357Z,66.60
2022-07-26T09:45:22.154Z,65.60
2022-07-26T09:47:48.926Z,64.50
2022-07-26T09:54:43.142Z,63.70
2022-07-26T09:57:10.630Z,62.60
2022-07-26T09:59:43.117Z,62.90
2022-07-26T10:02:10.505Z,63.20
2022-07-26T10:04:42.639Z,62.30
2022-07-26T10:07:09.813Z,60.30
2022-07-26T10:09:45.031Z,60.20
2022-07-26T10:12:14.177Z,60.10
2022-07-26T10:14:42.618Z,59.20
2022-07-26T10:17:29.191Z,59.80
2022-07-26T10:20:03.015Z,58.40
2022-07-26T10:22:36.197Z,58.40
2022-07-26T10:25:18.215Z,59.30
2022-07-26T10:27:46.211Z,58.70
2022-07-26T10:30:22.711Z,59.90
2022-07-26T10:32:59.872Z,59.60
2022-07-26T10:35:31.789Z,60.90
2022-07-26T10:38:00.076Z,60.40
2022-07-26T10:40:30.323Z,60.00
2022-07-26T10:43:39.678Z,60.40
2022-07-26T10:46:16.176Z,60.40
2022-07-26T10:48:59.731Z,60.00
2022-07-26T10:52:04.465Z,58.30
2022-07-26T10:54:31.231Z,59.70
2022-07-26T10:56:58.232Z,58.20
2022-07-26T10:59:54.236Z,58.30
2022-07-26T11:02:19.508Z,58.50
2022-07-26T11:04:46.676Z,58.30
2022-07-26T11:07:13.468Z,58.90
2022-07-26T11:09:41.186Z,58.50
2022-07-26T11:12:17.946Z,58.70
2022-07-26T11:14:48.271Z,58.30
2022-07-26T11:17:24.561Z,58.40
2022-07-26T11:19:51.688Z,58.10
2022-07-26T11:22:18.642Z,58.00
2022-07-26T11:24:45.471Z,58.30
2022-07-26T11:27:12.559Z,57.50
2022-07-26T11:29:41.039Z,58.30
2022-07-26T11:32:18.106Z,57.40
2022-07-26T11:34:45.771Z,58.40
2022-07-26T11:37:13.037Z,57.60
2022-07-26T11:39:40.051Z,57.30
2022-07-26T11:42:08.559Z,56.90
2022-07-26T11:44:36.006Z,56.40
2022-07-26T11:47:12.753Z,57.30
2022-07-26T11:53:22.862Z,57.80
2022-07-26T11:55:49.640Z,58.60
2022-07-26T11:58:16.502Z,57.30
2022-07-26T12:00:43.314Z,57.20
2022-07-26T12:03:10.016Z,57.10
2022-07-26T12:05:36.926Z,56.00
2022-07-26T12:08:05.283Z,55.80
2022-07-26T12:10:32.180Z,56.40
2022-07-26T12:13:15.278Z,57.00
2022-07-26T12:15:49.682Z,57.30
2022-07-26T12:18:28.689Z,56.30
2022-07-26T12:21:09.392Z,55.80
2022-07-26T12:23:40.519Z,55.40
2022-07-26T12:26:19.674Z,56.10
2022-07-26T12:28:46.465Z,55.90
2022-07-26T12:31:42.838Z,57.10
2022-07-26T12:34:10.022Z,56.30
2022-07-26T12:36:36.953Z,56.80
2022-07-26T12:39:04.927Z,57.60
2022-07-26T12:41:32.700Z,58.00
2022-07-26T12:44:00.059Z,58.80
2022-07-26T12:46:27.144Z,58.70
2022-07-26T12:48:59.717Z,59.00
2022-07-26T12:55:46.195Z,58.40
2022-07-26T12:58:12.982Z,57.40
2022-07-26T13:00:39.755Z,57.40
2022-07-26T13:03:06.516Z,57.30
2022-07-26T13:05:33.340Z,57.70
2022-07-26T13:08:00.115Z,58.10
2022-07-26T13:10:35.657Z,57.90
2022-07-26T13:13:03.660Z,57.50
2022-07-26T13:15:36.512Z,58.20
2022-07-26T13:18:07.990Z,57.60
2022-07-26T13:20:36.723Z,56.80
2022-07-26T13:23:03.877Z,56.80
2022-07-26T13:25:38.295Z,56.70
2022-07-26T13:28:07.141Z,57.90
2022-07-26T13:30:34.087Z,57.50
2022-07-26T13:33:00.890Z,57.60
2022-07-26T13:35:28.195Z,57.50
2022-07-26T13:37:55.080Z,56.70
2022-07-26T13:40:22.026Z,56.50
2022-07-26T13:42:50.099Z,55.60
2022-07-26T13:45:16.928Z,56.40
2022-07-26T13:47:43.867Z,55.30
2022-07-26T13:50:10.896Z,55.10
2022-07-26T13:56:56.385Z,55.20
2022-07-26T13:59:23.392Z,53.70
2022-07-26T14:01:50.344Z,54.50
2022-07-26T14:04:17.283Z,54.80
2022-07-26T14:06:44.248Z,55.90
2022-07-26T14:09:11.479Z,56.30
2022-07-26T14:11:38.873Z,57.40
2022-07-26T14:14:06.293Z,57.30
2022-07-26T14:16:33.622Z,57.60
2022-07-26T14:19:00.571Z,57.20
2022-07-26T14:21:28.307Z,56.90
2022-07-26T14:23:55.397Z,56.40
2022-07-26T14:26:22.436Z,56.10
2022-07-26T14:28:49.411Z,56.30
2022-07-26T14:31:16.975Z,57.00
2022-07-26T14:33:44.405Z,56.50
2022-07-26T14:36:16.080Z,56.30
2022-07-26T14:38:43.578Z,56.00
2022-07-26T14:41:11.484Z,57.30
2022-07-26T14:43:38.685Z,57.00
2022-07-26T14:46:15.665Z,55.60
2022-07-26T14:48:53.993Z,55.50
2022-07-26T14:51:59.720Z,55.60
2022-07-26T14:54:26.568Z,55.40
2022-07-26T14:56:53.888Z,53.80
2022-07-26T14:59:23.681Z,53.50
2022-07-26T15:01:54.023Z,54.40
2022-07-26T15:12:34.639Z,55.40
2022-07-26T15:15:04.642Z,53.90
2022-07-26T15:17:31.744Z,53.80
2022-07-26T15:19:59.091Z,53.80
2022-07-26T15:22:26.783Z,54.30
2022-07-26T15:24:56.967Z,53.90
2022-07-26T15:27:23.981Z,52.00
2022-07-26T15:29:51.218Z,50.80
2022-07-26T15:32:21.735Z,52.00
2022-07-26T15:34:49.284Z,51.90
2022-07-26T15:37:16.333Z,52.40
2022-07-26T15:39:43.540Z,52.10
2022-07-26T15:42:11.891Z,51.90
2022-07-26T15:44:45.414Z,53.10
2022-07-26T15:47:22.047Z,53.60
2022-07-26T15:50:05.076Z,53.40
2022-07-26T15:53:09.858Z,53.60
2022-07-26T15:55:37.113Z,54.60
2022-07-26T15:58:06.905Z,54.60
2022-07-26T16:00:35.219Z,55.20
2022-07-26T16:03:05.523Z,55.30
2022-07-26T16:05:33.400Z,55.10
2022-07-26T16:08:00.580Z,55.50
2022-07-26T16:10:27.496Z,55.40
2022-07-26T16:12:54.296Z,55.70
2022-07-26T16:15:21.105Z,54.50
2022-07-26T16:17:47.818Z,54.80
2022-07-26T16:20:15.858Z,54.60
2022-07-26T16:22:42.719Z,53.20
2022-07-26T16:25:09.703Z,54.50
2022-07-26T16:27:36.378Z,54.00
2022-07-26T16:30:03.215Z,53.90
2022-07-26T16:32:29.958Z,53.00
2022-07-26T16:34:56.722Z,52.40
2022-07-26T16:37:23.542Z,52.30
2022-07-26T16:39:50.517Z,53.20
2022-07-26T16:42:17.311Z,53.00
2022-07-26T16:44:44.356Z,53.40
2022-07-26T16:47:11.502Z,51.60
2022-07-26T16:49:42.566Z,50.80
2022-07-26T16:52:09.668Z,52.80
2022-07-26T16:58:55.305Z,52.30
2022-07-26T17:01:22.149Z,53.00
2022-07-26T17:03:48.927Z,52.70
2022-07-26T17:08:43.384Z,53.30
2022-07-26T17:11:10.435Z,55.30
2022-07-26T17:13:37.387Z,55.40
2022-07-26T17:16:04.246Z,55.40
2022-07-26T17:18:31.073Z,55.30
2022-07-26T17:20:58.189Z,55.90
2022-07-26T17:23:24.959Z,55.90
2022-07-26T17:25:51.721Z,55.70
2022-07-26T17:28:18.584Z,56.00
2022-07-26T17:30:45.331Z,56.20
2022-07-26T17:33:12.197Z,56.40
2022-07-26T17:35:39.088Z,56.10
2022-07-26T17:38:05.787Z,56.00
2022-07-26T17:40:34.674Z,56.10
2022-07-26T17:43:01.479Z,56.40
2022-07-26T17:45:28.244Z,56.20
2022-07-26T17:47:54.977Z,56.10
2022-07-26T17:50:38.602Z,55.90
2022-07-26T17:57:24.778Z,57.30
2022-07-26T17:59:51.842Z,56.10
2022-07-26T18:02:18.730Z,56.70
2022-07-26T18:04:45.881Z,57.00
2022-07-26T18:07:12.632Z,57.50
2022-07-26T18:09:39.427Z,57.80
2022-07-26T18:12:06.474Z,58.20
2022-07-26T18:14:33.289Z,58.20
2022-07-26T18:16:59.958Z,58.30
2022-07-26T18:19:26.691Z,58.10
2022-07-26T18:21:53.541Z,58.50
2022-07-26T18:24:20.272Z,59.40
2022-07-26T18:26:47.021Z,59.20
2022-07-26T18:29:15.254Z,59.40
2022-07-26T18:31:42.472Z,59.30
2022-07-26T18:34:09.422Z,59.50
2022-07-26T18:36:36.156Z,60.00
2022-07-26T18:39:03.207Z,59.70
2022-07-26T18:41:30.519Z,59.80
2022-07-26T18:43:59.402Z,60.00
2022-07-26T18:46:26.259Z,60.00
2022-07-26T18:48:53.239Z,60.30
2022-07-26T18:51:22.070Z,60.30
2022-07-26T18:54:31.121Z,61.10
2022-07-26T18:56:58.074Z,61.40
2022-07-26T18:59:24.847Z,61.60
2022-07-26T19:01:51.651Z,59.60
2022-07-26T19:04:19.468Z,60.80
2022-07-26T19:06:49.077Z,59.50
2022-07-26T19:09:16.656Z,60.90
2022-07-26T19:11:45.869Z,60.00
2022-07-26T19:14:13.053Z,59.90
2022-07-26T19:16:39.791Z,60.20
2022-07-26T19:19:06.557Z,61.10
2022-07-26T19:21:33.351Z,60.30
2022-07-26T19:24:00.214Z,59.90
2022-07-26T19:26:27.712Z,59.00
2022-07-26T19:28:54.583Z,59.80
2022-07-26T19:31:22.063Z,60.40
2022-07-26T19:33:49.153Z,60.30
2022-07-26T19:36:22.706Z,59.80
2022-07-26T19:38:53.862Z,59.60
2022-07-26T19:41:20.613Z,59.40
2022-07-26T19:43:47.429Z,60.00
2022-07-26T19:46:14.457Z,59.40
2022-07-26T19:48:41.263Z,59.90
2022-07-26T19:51:07.976Z,59.60
2022-07-26T19:53:34.756Z,59.90
2022-07-26T20:00:20.542Z,59.90
2022-07-26T20:02:47.490Z,59.90
2022-07-26T20:05:14.369Z,59.90
2022-07-26T20:07:41.317Z,60.50
2022-07-26T20:10:11.733Z,61.10
2022-07-26T20:12:38.871Z,61.50
2022-07-26T20:15:07.409Z,60.80
2022-07-26T20:17:35.739Z,61.40
2022-07-26T20:20:03.673Z,61.20
2022-07-26T20:22:30.529Z,61.10
2022-07-26T20:24:57.264Z,61.10
2022-07-26T20:27:24.410Z,62.00
2022-07-26T20:29:51.539Z,61.40
2022-07-26T20:32:18.320Z,61.70
2022-07-26T20:34:45.302Z,61.90
2022-07-26T20:37:13.944Z,62.10
2022-07-26T20:39:40.596Z,62.00
2022-07-26T20:42:09.376Z,61.90
2022-07-26T20:44:42.039Z,62.10
2022-07-26T20:47:10.312Z,61.80
2022-07-26T20:49:37.167Z,61.80
2022-07-26T20:52:05.046Z,62.10
2022-07-26T20:58:50.642Z,62.00
2022-07-26T21:01:17.387Z,62.00
2022-07-26T21:03:44.346Z,62.00
2022-07-26T21:06:11.188Z,62.50
2022-07-26T21:08:37.930Z,62.50
2022-07-26T21:11:04.690Z,62.30
2022-07-26T21:13:34.220Z,62.70
2022-07-26T21:16:01.066Z,64.20
2022-07-26T21:18:29.856Z,63.30
2022-07-26T21:20:57.576Z,63.20
2022-07-26T21:23:24.401Z,62.60
2022-07-26T21:25:58.140Z,62.50
2022-07-26T21:28:27.923Z,62.90
2022-07-26T21:30:54.868Z,62.80
2022-07-26T21:33:21.585Z,62.50
2022-07-26T21:35:48.455Z,62.90
2022-07-26T21:38:15.202Z,62.60
2022-07-26T21:40:42.045Z,62.20
2022-07-26T21:43:08.871Z,62.30
2022-07-26T21:45:35.785Z,62.40
2022-07-26T21:48:03.516Z,62.50
2022-07-26T21:50:30.453Z,62.00
2022-07-26T21:52:58.005Z,62.30
2022-07-26T21:56:02.444Z,61.80
2022-07-26T21:58:31.200Z,61.70
2022-07-26T22:01:06.537Z,61.60
2022-07-26T22:03:35.373Z,61.90
2022-07-26T22:06:02.206Z,61.60
2022-07-26T22:08:29.077Z,61.20
2022-07-26T22:10:55.834Z,61.40
2022-07-26T22:13:22.568Z,61.00
2022-07-26T22:15:49.542Z,61.10
2022-07-26T22:18:16.559Z,60.90
2022-07-26T22:20:44.181Z,60.90
2022-07-26T22:23:11.893Z,60.80
2022-07-26T22:25:39.234Z,60.80
2022-07-26T22:28:06.897Z,60.80
2022-07-26T22:30:33.909Z,60.70
2022-07-26T22:33:01.580Z,60.70
2022-07-26T22:35:34.942Z,60.50
2022-07-26T22:38:07.400Z,60.60
2022-07-26T22:40:34.209Z,60.70
2022-07-26T22:43:01.213Z,60.50
2022-07-26T22:45:28.992Z,60.40
2022-07-26T22:47:56.716Z,60.30
2022-07-26T22:50:24.701Z,60.40
2022-07-26T22:52:52.371Z,60.10
2022-07-26T22:59:38.045Z,60.00
2022-07-26T23:02:04.841Z,60.20
2022-07-26T23:04:31.671Z,60.10
2022-07-26T23:06:59.034Z,60.10
2022-07-26T23:09:27.064Z,60.00
2022-07-26T23:11:53.859Z,60.30
2022-07-26T23:14:20.630Z,60.20
2022-07-26T23:16:47.882Z,60.10
2022-07-26T23:19:15.196Z,60.10
2022-07-26T23:21:42.271Z,60.10
2022-07-26T23:24:09.097Z,60.30
2022-07-26T23:26:35.901Z,60.30
2022-07-26T23:29:02.826Z,60.30
2022-07-26T23:31:29.579Z,60.50
2022-07-26T23:33:56.285Z,60.50
2022-07-26T23:36:24.013Z,60.70
2022-07-26T23:38:50.758Z,60.90
2022-07-26T23:41:17.592Z,61.10
2022-07-26T23:48:17.217Z,62.20
2022-07-26T23:50:44.684Z,61.80
2022-07-26T23:53:12.342Z,62.40
2022-07-26T23:55:39.577Z,62.80
2022-07-26T23:58:07.148Z,63.20
